createdAt,value
2023-05-08T00:01:42.308Z,101274.19
2023-05-08T00:04:10.126Z,101279.16
2023-05-08T00:06:37.857Z,101283.47
2023-05-08T00:09:06.056Z,101286.66
2023-05-08T00:11:33.830Z,101285.78
2023-05-08T00:14:01.430Z,101279.28
2023-05-08T00:16:29.005Z,101292.88
2023-05-08T00:18:56.757Z,101283.94
2023-05-08T00:21:24.889Z,101296.78
2023-05-08T00:23:52.600Z,101292.59
2023-05-08T00:26:21.014Z,101295.66
2023-05-08T00:28:48.641Z,101297.31
2023-05-08T00:31:16.512Z,101300.47
2023-05-08T00:33:44.120Z,101303.03
2023-05-08T00:36:12.572Z,101295.75
2023-05-08T00:38:40.161Z,101302.75
2023-05-08T00:41:07.871Z,101297.41
2023-05-08T00:43:37.627Z,101298.94
2023-05-08T00:46:06.400Z,101305.78
2023-05-08T00:48:35.411Z,101302.19
2023-05-08T00:51:07.493Z,101294.44
2023-05-08T00:53:38.798Z,101298.66
2023-05-08T00:56:10.315Z,101299.16
2023-05-08T00:58:38.271Z,101315.69
2023-05-08T01:01:05.995Z,101301.69
2023-05-08T01:03:37.487Z,101312.13
2023-05-08T01:06:06.821Z,101312.59
2023-05-08T01:08:35.069Z,101315.13
2023-05-08T01:11:31.388Z,101304.25
2023-05-08T01:14:16.277Z,101315.44
2023-05-08T01:17:06.575Z,101314.78
2023-05-08T01:20:11.685Z,101317.63
2023-05-08T01:23:07.596Z,101317.22
2023-05-08T01:25:54.752Z,101311.56
2023-05-08T01:28:44.475Z,101317.47
2023-05-08T01:31:30.743Z,101320.97
2023-05-08T01:34:14.101Z,101325.47
2023-05-08T01:36:48.805Z,101317.28
2023-05-08T01:39:36.240Z,101327.19
2023-05-08T01:42:09.604Z,101333.44
2023-05-08T01:44:43.427Z,101323.75
2023-05-08T01:47:12.215Z,101321.06
2023-05-08T01:49:46.463Z,101327.59
2023-05-08T01:52:28.571Z,101333.69
2023-05-08T01:55:03.426Z,101333.31
2023-05-08T01:57:34.850Z,101340.31
2023-05-08T02:00:04.952Z,101333.31
2023-05-08T02:02:38.481Z,101342.09
2023-05-08T02:05:09.641Z,101344.75
2023-05-08T02:07:38.297Z,101347.25
2023-05-08T02:10:08.102Z,101347.50
2023-05-08T02:12:38.273Z,101345.84
2023-05-08T02:15:08.809Z,101342.06
2023-05-08T02:17:39.784Z,101353.63
2023-05-08T02:20:14.997Z,101347.94
2023-05-08T02:22:47.162Z,101354.72
2023-05-08T02:25:16.939Z,101359.56
2023-05-08T02:27:47.641Z,101346.88
2023-05-08T02:30:17.200Z,101352.25
2023-05-08T02:32:48.088Z,101363.50
2023-05-08T02:35:18.256Z,101359.41
2023-05-08T02:37:51.698Z,101361.84
2023-05-08T02:40:22.273Z,101367.34
2023-05-08T02:42:50.507Z,101369.53
2023-05-08T02:45:18.629Z,101368.38
2023-05-08T02:48:08.045Z,101378.31
2023-05-08T02:50:39.449Z,101373.88
2023-05-08T02:53:13.020Z,101366.06
2023-05-08T02:55:50.896Z,101377.16
2023-05-08T02:58:49.535Z,101381.09
2023-05-08T03:01:21.658Z,101384.94
2023-05-08T03:03:59.956Z,101383.63
2023-05-08T03:06:33.908Z,101382.59
2023-05-08T03:09:03.775Z,101387.53
2023-05-08T03:11:40.684Z,101390.22
2023-05-08T03:14:12.658Z,101390.72
2023-05-08T03:16:43.096Z,101387.94
2023-05-08T03:19:23.388Z,101401.13
2023-05-08T03:21:54.196Z,101391.53
2023-05-08T03:24:24.775Z,101392.03
2023-05-08T03:26:52.726Z,101395.31
2023-05-08T03:29:20.687Z,101391.16
2023-05-08T03:31:50.966Z,101397.00
2023-05-08T03:34:21.021Z,101402.94
2023-05-08T03:36:49.223Z,101399.19
2023-05-08T03:39:17.191Z,101404.34
2023-05-08T03:41:45.870Z,101401.47
2023-05-08T03:44:14.347Z,101402.97
2023-05-08T03:46:42.863Z,101409.91
2023-05-08T03:49:12.411Z,101417.63
2023-05-08T03:51:40.981Z,101414.09
2023-05-08T03:54:08.964Z,101413.22
2023-05-08T03:56:36.787Z,101417.22
2023-05-08T03:59:17.064Z,101408.44
2023-05-08T04:01:54.692Z,101422.28
2023-05-08T04:04:35.269Z,101414.06
2023-05-08T04:07:12.734Z,101412.59
2023-05-08T04:09:58.420Z,101412.81
2023-05-08T04:12:54.913Z,101413.16
2023-05-08T04:15:28.063Z,101411.38
2023-05-08T04:18:04.747Z,101408.38
2023-05-08T04:20:33.600Z,101411.03
2023-05-08T04:23:04.048Z,101414.28
2023-05-08T04:25:36.580Z,101408.91
2023-05-08T04:28:05.336Z,101404.09
2023-05-08T04:30:35.206Z,101409.22
2023-05-08T04:33:04.440Z,101403.63
2023-05-08T04:35:34.006Z,101414.84
2023-05-08T04:38:03.481Z,101404.19
2023-05-08T04:40:31.832Z,101417.00
2023-05-08T04:42:59.751Z,101408.94
2023-05-08T04:45:28.049Z,101411.56
2023-05-08T04:47:55.771Z,101402.31
2023-05-08T04:50:23.482Z,101403.22
2023-05-08T04:52:51.779Z,101408.59
2023-05-08T04:55:20.041Z,101403.19
2023-05-08T04:57:48.480Z,101399.53
2023-05-08T05:00:16.712Z,101403.25
2023-05-08T05:02:46.509Z,101403.97
2023-05-08T05:05:14.400Z,101409.22
2023-05-08T05:07:42.240Z,101407.41
2023-05-08T05:10:11.569Z,101415.91
2023-05-08T05:12:39.278Z,101415.97
2023-05-08T05:15:07.563Z,101426.19
2023-05-08T05:17:37.280Z,101424.84
2023-05-08T05:20:06.385Z,101424.00
2023-05-08T05:22:34.063Z,101427.50
2023-05-08T05:25:02.196Z,101427.22
2023-05-08T05:27:36.757Z,101432.75
2023-05-08T05:30:07.060Z,101417.75
2023-05-08T05:32:34.982Z,101428.66
2023-05-08T05:35:03.121Z,101424.25
2023-05-08T05:37:33.745Z,101416.44
2023-05-08T05:40:01.861Z,101424.91
2023-05-08T05:42:32.145Z,101423.47
2023-05-08T05:45:02.005Z,101409.78
2023-05-08T05:47:34.288Z,101409.69
2023-05-08T05:50:03.597Z,101417.44
2023-05-08T05:52:33.332Z,101415.69
2023-05-08T05:55:01.454Z,101408.69
2023-05-08T05:57:31.927Z,101417.50
2023-05-08T06:00:00.156Z,101412.94
2023-05-08T06:02:28.490Z,101417.25
2023-05-08T06:04:58.072Z,101409.00
2023-05-08T06:07:25.688Z,101417.97
2023-05-08T06:09:53.302Z,101416.75
2023-05-08T06:12:21.126Z,101412.41
2023-05-08T06:14:48.809Z,101421.19
2023-05-08T06:17:16.440Z,101422.75
2023-05-08T06:19:43.968Z,101419.59
2023-05-08T06:22:11.602Z,101415.72
2023-05-08T06:24:39.130Z,101421.75
2023-05-08T06:27:07.131Z,101415.78
2023-05-08T06:29:34.733Z,101415.72
2023-05-08T06:32:02.362Z,101427.72
2023-05-08T06:34:30.002Z,101432.34
2023-05-08T06:36:57.599Z,101429.38
2023-05-08T06:39:25.111Z,101420.28
2023-05-08T06:41:52.865Z,101407.75
2023-05-08T06:44:29.471Z,101410.28
2023-05-08T06:46:57.282Z,101407.63
2023-05-08T06:49:24.917Z,101407.03
2023-05-08T06:51:52.682Z,101403.97
2023-05-08T06:54:20.461Z,101409.56
2023-05-08T06:56:48.342Z,101403.59
2023-05-08T06:59:15.838Z,101414.22
2023-05-08T07:01:43.795Z,101406.25
2023-05-08T07:04:11.405Z,101399.03
2023-05-08T07:06:39.007Z,101407.28
2023-05-08T07:09:06.675Z,101404.31
2023-05-08T07:11:34.533Z,101407.59
2023-05-08T07:14:02.101Z,101396.19
2023-05-08T07:16:29.803Z,101401.53
2023-05-08T07:18:57.449Z,101395.47
2023-05-08T07:21:25.205Z,101395.22
2023-05-08T07:23:53.953Z,101392.28
2023-05-08T07:26:22.681Z,101383.66
2023-05-08T07:28:51.042Z,101394.06
2023-05-08T07:31:18.782Z,101394.13
2023-05-08T07:33:47.218Z,101398.34
2023-05-08T07:36:14.906Z,101382.69
2023-05-08T07:38:42.417Z,101380.63
2023-05-08T07:41:10.260Z,101383.06
2023-05-08T07:43:38.117Z,101374.22
2023-05-08T07:46:06.010Z,101377.56
2023-05-08T07:48:33.656Z,101366.34
2023-05-08T07:51:01.464Z,101372.66
2023-05-08T07:53:29.174Z,101365.41
2023-05-08T07:55:56.798Z,101362.88
2023-05-08T07:58:24.306Z,101374.06
2023-05-08T08:00:52.060Z,101365.63
2023-05-08T08:03:20.076Z,101358.22
2023-05-08T08:05:48.099Z,101354.16
2023-05-08T08:08:16.075Z,101350.00
2023-05-08T08:10:44.095Z,101343.88
2023-05-08T08:13:11.833Z,101347.56
2023-05-08T08:15:39.915Z,101358.19
2023-05-08T08:18:07.891Z,101352.97
2023-05-08T08:20:35.567Z,101361.84
2023-05-08T08:23:03.507Z,101360.44
2023-05-08T08:25:31.167Z,101360.63
2023-05-08T08:27:58.702Z,101374.09
2023-05-08T08:30:26.462Z,101364.22
2023-05-08T08:32:54.142Z,101362.41
2023-05-08T08:35:26.514Z,101362.28
2023-05-08T08:37:54.105Z,101358.09
2023-05-08T08:40:22.081Z,101360.63
2023-05-08T08:42:49.761Z,101368.47
2023-05-08T08:45:17.649Z,101373.81
2023-05-08T08:47:45.819Z,101375.03
2023-05-08T08:50:15.609Z,101371.53
2023-05-08T08:52:56.542Z,101370.53
2023-05-08T08:55:26.718Z,101370.16
2023-05-08T08:58:13.153Z,101349.56
2023-05-08T09:00:41.928Z,101356.81
2023-05-08T09:03:10.650Z,101340.91
2023-05-08T09:05:39.579Z,101357.81
2023-05-08T09:08:07.924Z,101346.22
2023-05-08T09:10:36.413Z,101356.47
2023-05-08T09:13:05.112Z,101357.44
2023-05-08T09:15:33.808Z,101363.78
2023-05-08T09:18:02.956Z,101351.53
2023-05-08T09:20:30.831Z,101357.53
2023-05-08T09:23:02.823Z,101364.16
2023-05-08T09:25:47.637Z,101357.53
2023-05-08T09:28:20.058Z,101352.47
2023-05-08T09:30:53.880Z,101367.19
2023-05-08T09:33:23.365Z,101359.25
2023-05-08T09:35:51.471Z,101357.00
2023-05-08T09:38:38.502Z,101364.16
2023-05-08T09:41:10.795Z,101352.00
2023-05-08T09:43:39.235Z,101359.13
2023-05-08T09:46:24.665Z,101349.00
2023-05-08T09:48:57.743Z,101355.13
2023-05-08T09:51:27.258Z,101345.91
2023-05-08T09:53:56.877Z,101352.66
2023-05-08T09:56:40.595Z,101346.69
2023-05-08T09:59:28.692Z,101343.44
2023-05-08T10:01:56.557Z,101349.13
2023-05-08T10:04:34.328Z,101353.09
2023-05-08T10:07:02.868Z,101363.09
2023-05-08T10:09:39.301Z,101354.81
2023-05-08T10:12:15.105Z,101344.63
2023-05-08T10:14:44.730Z,101349.72
2023-05-08T10:17:21.739Z,101356.75
2023-05-08T10:19:55.133Z,101349.53
2023-05-08T10:22:25.426Z,101353.06
2023-05-08T10:24:58.297Z,101352.25
2023-05-08T10:27:35.444Z,101348.31
2023-05-08T10:30:04.330Z,101359.91
2023-05-08T10:32:40.724Z,101355.03
2023-05-08T10:35:11.402Z,101356.41
2023-05-08T10:37:42.413Z,101347.16
2023-05-08T10:40:11.715Z,101355.28
2023-05-08T10:42:40.193Z,101352.25
2023-05-08T10:45:09.719Z,101340.63
2023-05-08T10:47:59.159Z,101336.91
2023-05-08T10:50:50.422Z,101331.66
2023-05-08T10:53:26.812Z,101323.25
2023-05-08T10:55:56.224Z,101322.13
2023-05-08T10:58:23.819Z,101324.22
2023-05-08T11:00:57.650Z,101321.00
2023-05-08T11:03:32.025Z,101315.47
2023-05-08T11:06:01.831Z,101309.31
2023-05-08T11:08:31.577Z,101303.25
2023-05-08T11:11:07.492Z,101300.66
2023-05-08T11:13:50.091Z,101304.91
2023-05-08T11:16:18.366Z,101296.63
2023-05-08T11:19:17.581Z,101297.72
2023-05-08T11:22:23.694Z,101304.81
2023-05-08T11:25:06.091Z,101290.59
2023-05-08T11:27:41.573Z,101299.81
2023-05-08T11:30:32.629Z,101296.66
2023-05-08T11:33:06.804Z,101291.94
2023-05-08T11:35:41.680Z,101294.97
2023-05-08T11:38:38.835Z,101293.88
2023-05-08T11:41:22.351Z,101294.97
2023-05-08T11:44:09.687Z,101297.75
2023-05-08T11:46:53.821Z,101295.34
2023-05-08T11:49:29.377Z,101295.03
2023-05-08T11:51:59.317Z,101294.69
2023-05-08T11:54:30.065Z,101283.09
2023-05-08T11:56:59.686Z,101287.28
2023-05-08T11:59:28.103Z,101288.00
2023-05-08T12:02:07.652Z,101297.63
2023-05-08T12:04:47.403Z,101292.47
2023-05-08T12:07:16.587Z,101301.28
2023-05-08T12:09:46.414Z,101288.34
2023-05-08T12:12:13.981Z,101299.44
2023-05-08T12:14:41.560Z,101298.63
2023-05-08T12:17:10.301Z,101300.06
2023-05-08T12:19:37.870Z,101296.72
2023-05-08T12:22:05.790Z,101290.88
2023-05-08T12:24:33.430Z,101298.16
2023-05-08T12:27:01.286Z,101302.03
2023-05-08T12:29:29.107Z,101300.53
2023-05-08T12:31:56.876Z,101305.56
2023-05-08T12:34:24.651Z,101300.97
2023-05-08T12:37:02.494Z,101304.59
2023-05-08T12:39:35.824Z,101303.38
2023-05-08T12:42:03.670Z,101296.75
2023-05-08T12:44:31.348Z,101289.66
2023-05-08T12:46:59.189Z,101293.00
2023-05-08T12:49:29.026Z,101286.19
2023-05-08T12:52:07.418Z,101291.66
2023-05-08T12:54:41.280Z,101284.44
2023-05-08T12:57:13.163Z,101284.84
2023-05-08T12:59:41.948Z,101285.72
2023-05-08T13:02:22.545Z,101290.50
2023-05-08T13:04:56.355Z,101288.53
2023-05-08T13:07:24.218Z,101287.34
2023-05-08T13:10:04.904Z,101282.81
2023-05-08T13:12:34.516Z,101284.59
2023-05-08T13:15:04.932Z,101267.88
2023-05-08T13:17:33.822Z,101268.81
2023-05-08T13:20:05.198Z,101264.44
2023-05-08T13:22:34.105Z,101261.16
2023-05-08T13:25:01.950Z,101261.63
2023-05-08T13:27:30.056Z,101258.38
2023-05-08T13:29:57.670Z,101252.69
2023-05-08T13:32:25.249Z,101264.44
2023-05-08T13:34:55.252Z,101255.22
2023-05-08T13:37:26.401Z,101255.38
2023-05-08T13:39:53.887Z,101253.69
2023-05-08T13:42:21.600Z,101259.13
2023-05-08T13:44:49.233Z,101269.44
2023-05-08T13:47:17.188Z,101268.53
2023-05-08T13:49:47.014Z,101265.91
2023-05-08T13:52:14.693Z,101261.63
2023-05-08T13:54:42.246Z,101267.78
2023-05-08T13:57:09.887Z,101268.78
2023-05-08T13:59:37.565Z,101265.91
2023-05-08T14:02:05.332Z,101270.78
2023-05-08T14:04:33.049Z,101267.00
2023-05-08T14:07:01.307Z,101271.16
2023-05-08T14:09:28.939Z,101267.63
2023-05-08T14:11:56.546Z,101261.47
2023-05-08T14:14:24.467Z,101264.06
2023-05-08T14:16:52.180Z,101264.72
2023-05-08T14:19:19.865Z,101263.63
2023-05-08T14:21:47.402Z,101258.16
2023-05-08T14:24:15.151Z,101251.53
2023-05-08T14:26:44.887Z,101261.50
2023-05-08T14:29:12.762Z,101258.53
2023-05-08T14:31:40.539Z,101261.78
2023-05-08T14:34:08.308Z,101263.25
2023-05-08T14:36:35.908Z,101262.78
2023-05-08T14:39:04.277Z,101258.69
2023-05-08T14:41:32.110Z,101260.88
2023-05-08T14:43:59.765Z,101254.53
2023-05-08T14:46:27.417Z,101251.69
2023-05-08T14:48:56.895Z,101260.84
2023-05-08T14:51:24.735Z,101253.88
2023-05-08T14:53:52.472Z,101258.06
2023-05-08T14:56:24.623Z,101261.47
2023-05-08T14:58:52.565Z,101255.91
2023-05-08T15:01:20.113Z,101251.63
2023-05-08T15:03:53.468Z,101252.31
2023-05-08T15:06:22.547Z,101259.38
2023-05-08T15:08:51.901Z,101244.66
2023-05-08T15:11:19.409Z,101254.41
2023-05-08T15:13:46.948Z,101247.28
2023-05-08T15:16:14.483Z,101243.03
2023-05-08T15:18:42.069Z,101251.81
2023-05-08T15:21:09.635Z,101248.44
2023-05-08T15:23:37.279Z,101253.59
2023-05-08T15:26:04.920Z,101243.09
2023-05-08T15:28:33.274Z,101244.78
2023-05-08T15:31:03.461Z,101239.41
2023-05-08T15:33:31.059Z,101240.13
2023-05-08T15:35:59.033Z,101247.91
2023-05-08T15:38:26.857Z,101246.00
2023-05-08T15:40:54.347Z,101246.09
2023-05-08T15:43:22.332Z,101242.28
2023-05-08T15:45:49.851Z,101249.22
2023-05-08T15:48:17.482Z,101248.09
2023-05-08T15:50:44.978Z,101250.50
2023-05-08T15:53:12.629Z,101250.28
2023-05-08T15:55:40.296Z,101248.31
2023-05-08T15:58:07.983Z,101247.09
2023-05-08T16:00:43.803Z,101245.81
2023-05-08T16:03:12.741Z,101245.28
2023-05-08T16:05:40.614Z,101241.47
2023-05-08T16:08:12.523Z,101237.94
2023-05-08T16:10:42.339Z,101241.88
2023-05-08T16:13:10.281Z,101250.06
2023-05-08T16:15:38.106Z,101244.31
2023-05-08T16:18:06.373Z,101238.75
2023-05-08T16:20:35.907Z,101244.16
2023-05-08T16:23:03.921Z,101246.41
2023-05-08T16:25:31.665Z,101255.47
2023-05-08T16:27:59.581Z,101248.28
2023-05-08T16:30:27.211Z,101253.25
2023-05-08T16:32:55.009Z,101247.03
2023-05-08T16:35:23.216Z,101234.38
2023-05-08T16:37:51.018Z,101247.38
2023-05-08T16:40:18.723Z,101252.38
2023-05-08T16:42:47.810Z,101248.72
2023-05-08T16:45:15.901Z,101251.03
2023-05-08T16:47:43.898Z,101261.22
2023-05-08T16:50:11.969Z,101248.00
2023-05-08T16:52:39.788Z,101254.72
2023-05-08T16:55:08.437Z,101253.47
2023-05-08T16:57:36.134Z,101254.41
2023-05-08T17:00:05.691Z,101270.34
2023-05-08T17:02:36.054Z,101263.13
2023-05-08T17:05:04.142Z,101263.41
2023-05-08T17:07:32.921Z,101268.44
2023-05-08T17:10:00.732Z,101267.88
2023-05-08T17:12:28.261Z,101272.38
2023-05-08T17:14:56.975Z,101278.81
2023-05-08T17:17:24.603Z,101273.78
2023-05-08T17:19:52.228Z,101275.09
2023-05-08T17:22:20.700Z,101274.69
2023-05-08T17:24:48.614Z,101277.50
2023-05-08T17:27:16.288Z,101269.97
2023-05-08T17:29:43.931Z,101279.19
2023-05-08T17:32:11.848Z,101272.47
2023-05-08T17:34:39.746Z,101286.88
2023-05-08T17:37:07.323Z,101282.06
2023-05-08T17:39:35.259Z,101284.81
2023-05-08T17:42:03.401Z,101285.41
2023-05-08T17:44:31.459Z,101285.78
2023-05-08T17:46:58.922Z,101285.59
2023-05-08T17:49:26.729Z,101304.34
2023-05-08T17:51:54.743Z,101298.00
2023-05-08T17:54:22.409Z,101296.81
2023-05-08T17:56:50.129Z,101311.41
2023-05-08T17:59:17.826Z,101306.09
2023-05-08T18:01:45.514Z,101311.13
2023-05-08T18:04:13.318Z,101316.03
2023-05-08T18:06:40.864Z,101313.09
2023-05-08T18:09:09.155Z,101311.09
2023-05-08T18:11:36.952Z,101312.66
2023-05-08T18:14:04.390Z,101313.38
2023-05-08T18:16:32.146Z,101323.50
2023-05-08T18:18:59.729Z,101305.03
2023-05-08T18:21:28.847Z,101301.06
2023-05-08T18:23:56.584Z,101314.31
2023-05-08T18:26:24.181Z,101320.91
2023-05-08T18:28:51.805Z,101308.47
2023-05-08T18:31:19.346Z,101308.34
2023-05-08T18:33:47.088Z,101308.22
2023-05-08T18:36:14.665Z,101316.63
2023-05-08T18:38:42.482Z,101310.97
2023-05-08T18:41:10.178Z,101315.09
2023-05-08T18:43:37.857Z,101319.00
2023-05-08T18:46:09.820Z,101325.91
2023-05-08T18:48:38.094Z,101327.47
2023-05-08T18:51:06.592Z,101325.47
2023-05-08T18:53:38.289Z,101324.41
2023-05-08T18:56:06.604Z,101333.66
2023-05-08T18:58:34.274Z,101327.31
2023-05-08T19:01:02.281Z,101326.06
2023-05-08T19:03:30.161Z,101331.75
2023-05-08T19:05:58.194Z,101340.09
2023-05-08T19:08:26.003Z,101333.78
2023-05-08T19:10:53.609Z,101329.13
2023-05-08T19:13:21.401Z,101340.94
2023-05-08T19:15:48.970Z,101339.91
2023-05-08T19:18:18.111Z,101335.38
2023-05-08T19:20:45.695Z,101335.03
2023-05-08T19:23:13.734Z,101336.50
2023-05-08T19:25:41.455Z,101344.28
2023-05-08T19:28:09.146Z,101343.28
2023-05-08T19:30:36.862Z,101346.50
2023-05-08T19:33:04.643Z,101346.28
2023-05-08T19:35:32.147Z,101337.38
2023-05-08T19:38:00.055Z,101346.19
2023-05-08T19:40:27.754Z,101349.44
2023-05-08T19:42:55.402Z,101352.63
2023-05-08T19:45:22.970Z,101344.50
2023-05-08T19:47:50.772Z,101343.75
2023-05-08T19:50:19.033Z,101348.72
2023-05-08T19:52:48.802Z,101350.31
2023-05-08T19:55:17.001Z,101354.44
2023-05-08T19:57:44.852Z,101337.75
2023-05-08T20:00:13.070Z,101340.09
2023-05-08T20:02:41.036Z,101348.84
2023-05-08T20:07:39.797Z,101342.41
2023-05-08T20:10:08.305Z,101349.19
2023-05-08T20:12:36.122Z,101356.75
2023-05-08T20:15:04.328Z,101347.22
2023-05-08T20:17:32.503Z,101350.31
2023-05-08T20:20:00.290Z,101348.31
2023-05-08T20:22:28.016Z,101356.09
2023-05-08T20:24:55.544Z,101347.41
2023-05-08T20:27:23.218Z,101348.97
2023-05-08T20:29:50.926Z,101352.09
2023-05-08T20:32:19.266Z,101351.06
2023-05-08T20:34:47.014Z,101362.06
2023-05-08T20:37:16.115Z,101362.06
2023-05-08T20:39:45.154Z,101358.16
2023-05-08T20:42:13.031Z,101358.94
2023-05-08T20:44:40.752Z,101364.06
2023-05-08T20:47:08.529Z,101353.38
2023-05-08T20:49:36.018Z,101365.25
2023-05-08T20:52:05.640Z,101365.25
2023-05-08T20:54:33.418Z,101373.81
2023-05-08T20:57:02.137Z,101367.72
2023-05-08T20:59:29.851Z,101362.38
2023-05-08T21:01:57.609Z,101368.38
2023-05-08T21:04:26.008Z,101371.59
2023-05-08T21:06:53.796Z,101372.34
2023-05-08T21:09:21.338Z,101367.13
2023-05-08T21:11:49.217Z,101370.38
2023-05-08T21:14:16.874Z,101372.81
2023-05-08T21:19:33.133Z,101360.25
2023-05-08T21:22:00.947Z,101366.88
2023-05-08T21:24:28.633Z,101366.75
2023-05-08T21:26:56.393Z,101372.66
2023-05-08T21:29:23.991Z,101363.84
2023-05-08T21:31:52.205Z,101373.06
2023-05-08T21:34:22.655Z,101368.53
2023-05-08T21:36:50.238Z,101369.16
2023-05-08T21:39:17.843Z,101371.59
2023-05-08T21:41:46.779Z,101372.38
2023-05-08T21:44:15.882Z,101366.16
2023-05-08T21:46:43.501Z,101362.34
2023-05-08T21:49:11.147Z,101370.91
2023-05-08T21:51:38.705Z,101367.19
2023-05-08T21:54:06.203Z,101359.88
2023-05-08T21:56:34.032Z,101376.09
2023-05-08T21:59:01.624Z,101369.16
2023-05-08T22:01:29.902Z,101374.84
2023-05-08T22:03:57.680Z,101375.59
2023-05-08T22:06:25.450Z,101383.91
2023-05-08T22:08:53.481Z,101378.22
2023-05-08T22:11:22.460Z,101369.53
2023-05-08T22:13:50.347Z,101381.53
2023-05-08T22:16:18.088Z,101377.88
2023-05-08T22:18:45.717Z,101379.41
2023-05-08T22:21:13.206Z,101370.50
2023-05-08T22:23:40.778Z,101371.28
2023-05-08T22:26:08.526Z,101372.81
2023-05-08T22:28:36.213Z,101382.25
2023-05-08T22:31:03.989Z,101378.44
2023-05-08T22:33:34.088Z,101385.22
2023-05-08T22:36:02.017Z,101376.66
2023-05-08T22:38:29.614Z,101383.84
2023-05-08T22:40:57.618Z,101385.50
2023-05-08T22:43:25.257Z,101387.56
2023-05-08T22:45:53.782Z,101389.22
2023-05-08T22:48:21.707Z,101384.50
2023-05-08T22:50:50.170Z,101388.00
2023-05-08T22:53:18.592Z,101379.19
2023-05-08T22:55:46.266Z,101378.41
2023-05-08T22:58:14.113Z,101371.81
2023-05-08T23:00:41.855Z,101383.00
2023-05-08T23:03:09.445Z,101374.00
2023-05-08T23:05:37.074Z,101376.69
2023-05-08T23:08:04.972Z,101372.84
2023-05-08T23:10:32.619Z,101382.28
2023-05-08T23:13:00.410Z,101375.41
2023-05-08T23:15:28.012Z,101376.94
2023-05-08T23:17:55.895Z,101381.16
2023-05-08T23:20:23.792Z,101377.31
2023-05-08T23:22:51.354Z,101385.97
2023-05-08T23:25:19.301Z,101383.28
2023-05-08T23:27:48.336Z,101380.63
2023-05-08T23:30:17.072Z,101382.19
2023-05-08T23:32:44.812Z,101375.91
2023-05-08T23:35:12.638Z,101386.38
2023-05-08T23:37:40.405Z,101389.06
2023-05-08T23:40:08.741Z,101380.13
2023-05-08T23:42:37.256Z,101388.94
2023-05-08T23:45:06.395Z,101399.88
2023-05-08T23:47:34.203Z,101384.47
2023-05-08T23:50:01.780Z,101393.66
2023-05-08T23:52:31.946Z,101396.22
2023-05-08T23:54:59.565Z,101383.22
2023-05-08T23:57:27.070Z,101389.06
2023-05-08T23:59:54.754Z,101384.63
